Gelukkig nieuwjaar .......... Bonne année ........... Happy new year ........... Frohes neues Jahr


Lokaal brand risico:
CBI


Regionaal brand risico: Meer informatie


Onweer radar Meer informatie blitzortung!


Regen radar Meer informatie rain snow radar


Bezoek onze andere website:

Template documentation
and downloads

Weerstation Lembeke

Weerstation Wilsele

EUweather


U vindt ons ook hier:

Het Weer Aktueel

UK Metoffice

European Weather Network

WeatherCloud

Weather Underground

Benelux Weer Netwerk

AWEKAS

WeatherlinkIP

Citizen Weather Observer Program (CWOP)

HAMweather, WeatherForYou, PWS Weather



Het weer levert geen direct gevaar op.    Er zijn geen waarschuwingen afgegeven.

METAR rapporten vliegvelden

   
EBOS - Oostende
Gewijzigd: 19-02-2018 14:20
Wat regen mogelijk, Nevel, Grotendeels bewolkt  
Wat regen mogelijk, Nevel, Grotendeels bewolkt  
   Wind: Zuiden 16.7 km/h
Wind: Zuiden 16.7 km/h
Temperatuur: 3°C
Voelt als: -1°C
Dauwpunt: 1°C
Vochtigheid: 87%
Barometer: 1017 hPa
Bewolking: Grotendeels bewolkt
Zicht: 4 km
Bewolking: Grotendeels bewolkt 600 ft,
Grotendeels bewolkt 1000 ft
EBOS 191320Z 17009KT 3600 -RA BR BKN006 BKN010 03/01 Q1017 TEMPO BKN004
EBAW - Antwerp
Gewijzigd: 19-02-2018 14:20
Wat regen mogelijk, Grotendeels bewolkt  
Wat regen mogelijk, Grotendeels bewolkt  
   Wind: ZO 9.3 km/h
Wind: ZO 9.3 km/h
Temperatuur: 5°C
Voelt als: 3°C
Dauwpunt: -1°C
Vochtigheid: 66%
Barometer: 1018 hPa
Bewolking: Grotendeels bewolkt
Zicht: 9 km
Bewolking: Gedeeltelijk bewolkt 1600 ft,
Grotendeels bewolkt 4500 ft
EBAW 191320Z 14005KT 9000 -RA SCT016 BKN045 05/M01 Q1018 NOSIG
EBLG - Luik
Gewijzigd: 19-02-2018 14:20
Gedeeltelijk bewolkt  
Gedeeltelijk bewolkt  
   Wind: Zuiden 13 km/h
Wind: Zuiden 13 km/h
Temperatuur: 3°C
Voelt als: -1°C
Dauwpunt: -2°C
Vochtigheid: 70%
Barometer: 1018 hPa
Bewolking: Gedeeltelijk bewolkt
Zicht: meer dan 10 km
Bewolking: Gedeeltelijk bewolkt 3500 ft
EBLG 191320Z 19007KT 9999 SCT035 03/M02 Q1018 NOSIG
EBCV - Mons/Bergen
Gewijzigd: 19-02-2018 14:25
Wat regen mogelijk, Bewolking  
Wat regen mogelijk, Bewolking  
   Wind: Zuiden 11.1 km/h
Wind: Zuiden 11.1 km/h
Temperatuur: 3°C
Voelt als: 0°C
Dauwpunt: 1°C
Vochtigheid: 87%
Barometer: 1018 hPa
Bewolking: Bewolking
Zicht: meer dan 10 km
Bewolking: Grotendeels bewolkt 1300 ft,
Bewolking 3700 ft
EBCV 191325Z AUTO 19006KT 9999 -RA BKN013/// OVC037/// 03/01 Q1018 GRN
EHBK - Maastricht
Gewijzigd: 19-02-2018 14:55
Gedeeltelijk bewolkt  
Gedeeltelijk bewolkt  
   Wind: ZZW 9.3 km/h
Wind: ZZW 9.3 km/h
Temperatuur: 4°C
Voelt als: 2°C
Dauwpunt: -2°C
Vochtigheid: 65%
Barometer: 1018 hPa
Bewolking: Gedeeltelijk bewolkt
Zicht: meer dan 10 km
Bewolking: Gedeeltelijk bewolkt
EHBK 191355Z AUTO 20005KT 160V240 9999 NSC 04/M02 Q1018 NOSIG
ELLX - Luxemburg
Gewijzigd: 19-02-2018 14:50
Grotendeels bewolkt  
Grotendeels bewolkt  
   Wind: varieert 5.6 km/h
Wind: varieert 5.6 km/h
Temperatuur: 1°C
Voelt als: -1°C
Dauwpunt: -3°C
Vochtigheid: 75%
Barometer: 1017 hPa
Bewolking: Grotendeels bewolkt
Zicht: meer dan 10 km
Bewolking: Grotendeels bewolkt 1700 ft
ELLX 191350Z VRB03KT 9999 BKN017 01/M03 Q1017 NOSIG

Original script by  Saratoga-weather.org Aangepast voor de template door  Weerstation Leuven

Apparatuur in gebruik:

Weerstation
Davis Vantage Pro 2 Plus

Weerprogramma
Meteohub

Weercomputer
RaspberryPI

Webleverancier
My provider

Davis Vantage Pro 2 Plus

Meteohub

RaspberryPI

My provider